Rechercher aéroport 
image banner adimage banner adimage banner ad
image banner ad

8CA8 - Wallom Field

Situé à Lodi, United States

ICAO - 8CA8, IATA -

Données fournies par Airmate  

Information générale

Coordonnées: N38°4'2" W121°12'27"
Élévation : 56 feet MSL.
Variation magnétique : 16° East
Voir autres Aéroports à California

Données opérationnelles

Special qualification required
Heure actuelle UTC:
Heure actuelle locale:
Météo à : KSCK - Stockton Metropolitan ( 19 km )
METAR: KSCK 251555Z 33006KT 10SM CLR 21/12 A2991 RMK AO2 SLP127 T02110117
TAF: KSCK 251120Z 2512/2612 32009KT P6SM SCT250
Voir NOTAMs / SUP AIP / TFR affectant cet aéroport [VIEW]
Fréquences de communication: [VIEW]

Pistes:

Identifiant RWYQFULongueur (ft)Largeur (ft)SurfaceLDA (ft)
17348850ASPH
35348850ASPH

Coordonnées de l'aéroport

Adresse: Lodi United States

Vue satellite de 8CA8